• Join FlightAware (Why Join?)
  • Login
  • US Flag 
10:11PM EDT


 

Airport Tracker/Info


-or-


 

Live Flight TrackerFlight Track Log ✈ UAL708 ✈ 21-Apr-2013 ✈ KLAX - PHNL

Flight Track Log - Related Links

Times and Time Zones

All times are in EDT time to prevent confusion due to time zone crossing. See the UAL708 flight status page for this flight to view local times or setup timezone preferences in your user account.

Time Position Orientation Groundspeed Altitude Reporting Facility
EDT Latitude Longitude Course Direction KTS MPH feet Rate Location/Type
01:14PM 33.9489 -118.4786 270° West 150 173 34,000  Level Los Angeles Center
01:15PM 33.9286 -118.5164 237° Southwest 231 266 3,300 -13,500 Descending Los Angeles Center
01:16PM 33.9208 -118.6144 265° West 271 312 6,200 2,580 Climbing Los Angeles Center
01:17PM 33.8797 -118.9441 264° West  Level FlightAware Approximate
01:17PM 33.9114 -118.7078 263° West 281 323 8,700  Level Los Angeles Center
01:18PM 33.8682 -119.0821 264° West  Level FlightAware Approximate
01:18PM 33.9017 -118.8019 263° West 295 339 10,500  Level Los Angeles Center
01:19PM 33.8500 -119.2187 270° West  Level FlightAware Approximate
01:19PM 33.8900 -118.9153 263° West 346 398 12,200  Level Los Angeles Center
01:20PM 33.8906 -119.0367 270° West 366 421 14,400 2,220 Climbing Los Angeles Center
01:21PM 33.8961 -119.1867 273° West 377 434 16,800 1,920 Climbing Los Angeles Center
01:22PM 33.8997 -119.3178 272° West 393 452 18,400 1,620 Climbing Los Angeles Center
01:23PM 33.9028 -119.4517 272° West 405 466 20,200 1,740 Climbing Los Angeles Center
01:24PM 33.9072 -119.5903 272° West 415 478 22,000 1,560 Climbing Los Angeles Center
01:25PM 33.9103 -119.7289 272° West 418 481 23,500 1,320 Climbing Los Angeles Center
01:26PM 33.9106 -119.8719 270° West 428 493 24,800 1,500 Climbing Los Angeles Center
01:27PM 33.9142 -120.0475 271° West 436 502 26,700 1,440 Climbing Los Angeles Center
01:28PM 33.9214 -120.1919 273° West 436 502 27,800 1,020 Climbing Los Angeles Center
01:29PM 33.9225 -120.3439 271° West 442 509 28,900 1,200 Climbing Los Angeles Center
01:31PM 33.9253 -120.4975 271° West 449 517 30,400 1,320 Climbing Los Angeles Center
01:32PM 33.9272 -120.6469 271° West 449 517 31,700 1,140 Climbing Los Angeles Center
01:33PM 33.9289 -120.7908 271° West 439 505 32,800 1,080 Climbing Los Angeles Center
01:34PM 33.9300 -120.9669 270° West 436 502 34,000 540 Climbing Los Angeles Center
01:35PM 33.9328 -121.1128 271° West 435 501 34,000  Level Los Angeles Center
01:36PM 33.9339 -121.2569 271° West 431 496 34,000  Level Los Angeles Center
01:37PM 33.9356 -121.4031 271° West 434 499 34,000  Level Los Angeles Center
01:38PM 33.9369 -121.5503 271° West 438 504 34,000  Level Los Angeles Center
01:39PM 33.9375 -121.6961 270° West 436 502 34,000  Level Los Angeles Center
01:40PM 33.9364 -121.8431 270° West 437 503 34,000  Level Los Angeles Center
01:41PM 33.9367 -122.0189 270° West 437 503 34,000  Level Los Angeles Center
01:42PM 33.9381 -122.1647 271° West 436 502 34,000  Level Los Angeles Center
01:43PM 33.9389 -122.3089 270° West 431 496 34,000  Level Los Angeles Center
01:44PM 33.9414 -122.4253 272° West 434 499 34,000  Level Los Angeles Center
01:45PM 33.9417 -122.5967 270° West 430 495 34,000  Level Los Angeles Center
01:46PM 33.9406 -122.7386 269° West 427 491 34,000  Level Los Angeles Center
01:47PM 33.9400 -122.9089 270° West 424 488 34,000  Level Los Angeles Center
01:49PM 33.9390 -123.1131 270° West  Level FlightAware Approximate
01:56PM 33.9295 -124.0990 270° West  Level FlightAware Approximate
01:57PM 33.9275 -124.2398 269° West  Level FlightAware Approximate
01:58PM 33.9254 -124.3806 269° West  Level FlightAware Approximate
01:59PM 33.9230 -124.5214 269° West  Level FlightAware Approximate
02:00PM 33.9206 -124.6622 269° West  Level FlightAware Approximate
02:01PM 33.9179 -124.8029 269° West  Level FlightAware Approximate
02:02PM 33.9156 -124.9436 267° West  Level FlightAware Approximate
02:03PM 33.9100 -125.0843 267° West  Level FlightAware Approximate
02:03PM 33.9167 -124.9333 267° West 444 511 34,000  Level Oakland Oceanic (ODAPS)
02:04PM 33.9043 -125.2225 267° West  Level FlightAware Approximate
02:05PM 33.8984 -125.3607 267° West  Level FlightAware Approximate
02:06PM 33.8925 -125.4989 267° West  Level FlightAware Approximate
02:07PM 33.8862 -125.6401 267° West  Level FlightAware Approximate
02:08PM 33.8797 -125.7812 267° West  Level FlightAware Approximate
02:09PM 33.8666 -126.1174 267° West 444 511 34,000  Level FlightAware Transoceanic
02:10PM 33.8595 -126.2653 267° West 444 511 34,000  Level FlightAware Transoceanic
02:11PM 33.8522 -126.4131 267° West 444 511 34,000  Level FlightAware Transoceanic
02:12PM 33.8448 -126.5610 267° West 444 511 34,000  Level FlightAware Transoceanic
02:13PM 33.8372 -126.7088 266° West 444 511 34,000  Level FlightAware Transoceanic
02:14PM 33.8295 -126.8566 266° West 444 511 34,000  Level FlightAware Transoceanic
02:15PM 33.8215 -127.0044 266° West 444 511 34,000  Level FlightAware Transoceanic
02:16PM 33.8134 -127.1522 266° West 444 511 34,000  Level FlightAware Transoceanic
02:17PM 33.8051 -127.2999 266° West 444 511 34,000  Level FlightAware Transoceanic
02:18PM 33.7966 -127.4476 266° West 444 511 34,000  Level FlightAware Transoceanic
02:19PM 33.7880 -127.5952 266° West 444 511 34,000  Level FlightAware Transoceanic
02:20PM 33.7792 -127.7428 266° West 444 511 34,000  Level FlightAware Transoceanic
02:21PM 33.7702 -127.8904 266° West 444 511 34,000  Level FlightAware Transoceanic
02:22PM 33.7610 -128.0380 266° West 444 511 34,000  Level FlightAware Transoceanic
02:23PM 33.7517 -128.1855 266° West 444 511 34,000  Level FlightAware Transoceanic
02:24PM 33.7421 -128.3330 266° West 444 511 34,000  Level FlightAware Transoceanic
02:25PM 33.7324 -128.4805 265° West 444 511 34,000  Level FlightAware Transoceanic
02:26PM 33.7225 -128.6279 265° West 444 511 34,000  Level FlightAware Transoceanic
02:27PM 33.7125 -128.7753 265° West 444 511 34,000  Level FlightAware Transoceanic
02:28PM 33.7023 -128.9227 265° West 444 511 34,000  Level FlightAware Transoceanic
02:29PM 33.6919 -129.0701 265° West 444 511 34,000  Level FlightAware Transoceanic
02:30PM 33.6813 -129.2173 265° West 444 511 34,000  Level FlightAware Transoceanic
02:31PM 33.6705 -129.3646 265° West 444 511 34,000  Level FlightAware Transoceanic
02:32PM 33.6596 -129.5118 265° West 444 511 34,000  Level FlightAware Transoceanic
02:33PM 33.6485 -129.6590 265° West 444 511 34,000  Level FlightAware Transoceanic
02:34PM 33.6372 -129.8062 265° West 444 511 34,000  Level FlightAware Transoceanic
02:35PM 33.6258 -129.9532 265° West 444 511 34,000  Level FlightAware Transoceanic
02:36PM 33.6142 -130.1003 265° West 444 511 34,000  Level FlightAware Transoceanic
02:37PM 33.6024 -130.2473 264° West 444 511 34,000  Level FlightAware Transoceanic
02:38PM 33.5904 -130.3943 264° West 444 511 34,000  Level FlightAware Transoceanic
02:39PM 33.5783 -130.5413 264° West 444 511 34,000  Level FlightAware Transoceanic
02:40PM 33.5659 -130.6882 264° West 444 511 34,000  Level FlightAware Transoceanic
02:41PM 33.5535 -130.8351 264° West 444 511 34,000  Level FlightAware Transoceanic
02:42PM 33.5408 -130.9819 264° West 444 511 34,000  Level FlightAware Transoceanic
02:43PM 33.5279 -131.1286 264° West 444 511 34,000  Level FlightAware Transoceanic
02:44PM 33.5149 -131.2754 264° West 444 511 34,000  Level FlightAware Transoceanic
02:45PM 33.5018 -131.4221 264° West 444 511 34,000  Level FlightAware Transoceanic
02:46PM 33.4884 -131.5687 264° West 444 511 34,000  Level FlightAware Transoceanic
02:47PM 33.4749 -131.7153 264° West 444 511 34,000  Level FlightAware Transoceanic
02:48PM 33.4612 -131.8618 264° West 444 511 34,000  Level FlightAware Transoceanic
02:49PM 33.4473 -132.0083 263° West 444 511 34,000  Level FlightAware Transoceanic
02:50PM 33.4332 -132.1548 263° West 444 511 34,000  Level FlightAware Transoceanic
02:51PM 33.4190 -132.3012 263° West 444 511 34,000  Level FlightAware Transoceanic
02:52PM 33.4046 -132.4476 263° West 444 511 34,000  Level FlightAware Transoceanic
02:53PM 33.3901 -132.5939 263° West 444 511 34,000  Level FlightAware Transoceanic
02:54PM 33.3753 -132.7401 263° West 444 511 34,000  Level FlightAware Transoceanic
02:55PM 33.3604 -132.8864 263° West 444 511 34,000  Level FlightAware Transoceanic
02:56PM 33.3453 -133.0325 263° West 444 511 34,000  Level FlightAware Transoceanic
02:57PM 33.3301 -133.1786 263° West 444 511 34,000  Level FlightAware Transoceanic
02:58PM 33.3147 -133.3247 263° West 444 511 34,000  Level FlightAware Transoceanic
02:59PM 33.2991 -133.4707 263° West 444 511 34,000  Level FlightAware Transoceanic
03:00PM 33.2833 -133.6167 254° West 444 511 34,000  Level FlightAware Transoceanic
03:01PM 33.2494 -133.7592 254° West 444 511 34,000  Level FlightAware Transoceanic
03:02PM 33.2152 -133.9016 254° West 444 511 34,000  Level FlightAware Transoceanic
03:03PM 33.1810 -134.0439 254° West 444 511 34,000  Level FlightAware Transoceanic
03:04PM 33.1465 -134.1860 254° West 444 511 34,000  Level FlightAware Transoceanic
03:05PM 33.1119 -134.3281 254° West 444 511 34,000  Level FlightAware Transoceanic
03:06PM 33.0771 -134.4700 254° West 444 511 34,000  Level FlightAware Transoceanic
03:07PM 33.0422 -134.6119 254° West 444 511 34,000  Level FlightAware Transoceanic
03:07PM 33.2833 -133.6167 254° West 463 533 34,000  Level Oakland Oceanic (ODAPS)
03:08PM 33.0071 -134.7536 254° West 444 511 34,000  Level FlightAware Transoceanic
03:09PM 32.9719 -134.8952 253° West 444 511 34,000  Level FlightAware Transoceanic
03:10PM 32.9364 -135.0367 253° West 444 511 34,000  Level FlightAware Transoceanic
03:11PM 32.9009 -135.1781 253° West 444 511 34,000  Level FlightAware Transoceanic
03:12PM 32.8651 -135.3194 253° West 444 511 34,000  Level FlightAware Transoceanic
03:13PM 32.8293 -135.4605 253° West 444 511 34,000  Level FlightAware Transoceanic
03:14PM 32.7741 -135.6761 253° West 463 533 34,000  Level FlightAware Transoceanic
03:15PM 32.7364 -135.8222 253° West 463 533 34,000  Level FlightAware Transoceanic
03:16PM 32.6986 -135.9683 253° West 463 533 34,000  Level FlightAware Transoceanic
03:17PM 32.6606 -136.1142 253° West 463 533 34,000  Level FlightAware Transoceanic
03:18PM 32.6224 -136.2600 253° West 463 533 34,000  Level FlightAware Transoceanic
03:19PM 32.5841 -136.4057 253° West 463 533 34,000  Level FlightAware Transoceanic
03:20PM 32.5456 -136.5513 253° West 463 533 34,000  Level FlightAware Transoceanic
03:21PM 32.5069 -136.6967 252° West 463 533 34,000  Level FlightAware Transoceanic
03:22PM 32.4681 -136.8420 252° West 463 533 34,000  Level FlightAware Transoceanic
03:23PM 32.4291 -136.9872 252° West 463 533 34,000  Level FlightAware Transoceanic
03:24PM 32.3899 -137.1323 252° West 463 533 34,000  Level FlightAware Transoceanic
03:25PM 32.3506 -137.2772 252° West 463 533 34,000  Level FlightAware Transoceanic
03:26PM 32.3111 -137.4220 252° West 463 533 34,000  Level FlightAware Transoceanic
03:27PM 32.2714 -137.5667 252° West 463 533 34,000  Level FlightAware Transoceanic
03:28PM 32.2316 -137.7112 252° West 463 533 34,000  Level FlightAware Transoceanic
03:29PM 32.1916 -137.8557 252° West 463 533 34,000  Level FlightAware Transoceanic
03:30PM 32.1514 -138.0000 252° West 463 533 34,000  Level FlightAware Transoceanic
03:31PM 32.1111 -138.1441 252° West 463 533 34,000  Level FlightAware Transoceanic
03:32PM 32.0706 -138.2882 252° West 463 533 34,000  Level FlightAware Transoceanic
03:33PM 32.0299 -138.4321 252° West 463 533 34,000  Level FlightAware Transoceanic
03:34PM 31.9891 -138.5759 251° West 463 533 34,000  Level FlightAware Transoceanic
03:35PM 31.9481 -138.7195 251° West 463 533 34,000  Level FlightAware Transoceanic
03:36PM 31.9070 -138.8631 251° West 463 533 34,000  Level FlightAware Transoceanic
03:37PM 31.8657 -139.0065 251° West 463 533 34,000  Level FlightAware Transoceanic
03:38PM 31.8242 -139.1498 251° West 463 533 34,000  Level FlightAware Transoceanic
03:39PM 31.7826 -139.2929 251° West 463 533 34,000  Level FlightAware Transoceanic
03:40PM 31.7409 -139.4359 251° West 463 533 34,000  Level FlightAware Transoceanic
03:41PM 31.6989 -139.5788 251° West 463 533 34,000  Level FlightAware Transoceanic
03:42PM 31.6568 -139.7216 251° West 463 533 34,000  Level FlightAware Transoceanic
03:43PM 31.6145 -139.8642 251° West 463 533 34,000  Level FlightAware Transoceanic
03:44PM 31.5721 -140.0067 251° West 463 533 34,000  Level FlightAware Transoceanic
03:45PM 31.5296 -140.1491 251° West 463 533 34,000  Level FlightAware Transoceanic
03:46PM 31.4868 -140.2913 251° West 463 533 34,000  Level FlightAware Transoceanic
03:47PM 31.4439 -140.4334 250° West 463 533 34,000  Level FlightAware Transoceanic
03:48PM 31.4009 -140.5754 250° West 463 533 34,000  Level FlightAware Transoceanic
03:49PM 31.3577 -140.7173 250° West 463 533 34,000  Level FlightAware Transoceanic
03:50PM 31.3143 -140.8590 250° West 463 533 34,000  Level FlightAware Transoceanic
03:51PM 31.2708 -141.0005 250° West 463 533 34,000  Level FlightAware Transoceanic
03:52PM 31.2272 -141.1420 250° West 463 533 34,000  Level FlightAware Transoceanic
03:53PM 31.1833 -141.2833 242° Southwest 463 533 34,000  Level FlightAware Transoceanic
03:54PM 31.1267 -141.4088 242° Southwest 463 533 34,000  Level FlightAware Transoceanic
03:55PM 31.0700 -141.5341 242° Southwest 463 533 34,000  Level FlightAware Transoceanic
03:56PM 31.0131 -141.6592 242° Southwest 463 533 34,000  Level FlightAware Transoceanic
03:56PM 31.1833 -141.2833 242° Southwest 421 484 34,000  Level Oakland Oceanic (ODAPS)
03:57PM 30.9562 -141.7842 242° Southwest 463 533 34,000  Level FlightAware Transoceanic
03:58PM 30.8991 -141.9091 242° Southwest 463 533 34,000  Level FlightAware Transoceanic
03:59PM 30.8418 -142.0338 242° Southwest 463 533 34,000  Level FlightAware Transoceanic
04:00PM 30.7845 -142.1584 242° Southwest 463 533 34,000  Level FlightAware Transoceanic
04:01PM 30.7271 -142.2828 242° Southwest 463 533 34,000  Level FlightAware Transoceanic
04:02PM 30.6695 -142.4070 242° Southwest 463 533 34,000  Level FlightAware Transoceanic
04:03PM 30.6877 -142.3678 242° Southwest 421 484 34,000  Level FlightAware Transoceanic
04:04PM 30.6320 -142.4876 242° Southwest 421 484 34,000  Level FlightAware Transoceanic
04:05PM 30.5763 -142.6073 242° Southwest 421 484 34,000  Level FlightAware Transoceanic
04:06PM 30.5205 -142.7268 241° Southwest 421 484 34,000  Level FlightAware Transoceanic
04:07PM 30.4645 -142.8462 241° Southwest 421 484 34,000  Level FlightAware Transoceanic
04:08PM 30.4084 -142.9655 241° Southwest 421 484 34,000  Level FlightAware Transoceanic
04:09PM 30.3523 -143.0846 241° Southwest 421 484 34,000  Level FlightAware Transoceanic
04:10PM 30.2960 -143.2036 241° Southwest 421 484 34,000  Level FlightAware Transoceanic
04:11PM 30.2396 -143.3224 241° Southwest 421 484 34,000  Level FlightAware Transoceanic
04:12PM 30.1831 -143.4411 241° Southwest 421 484 34,000  Level FlightAware Transoceanic
04:13PM 30.1265 -143.5597 241° Southwest 421 484 34,000  Level FlightAware Transoceanic
04:14PM 30.0698 -143.6781 241° Southwest 421 484 34,000  Level FlightAware Transoceanic
04:15PM 30.0130 -143.7964 241° Southwest 421 484 34,000  Level FlightAware Transoceanic
04:16PM 29.9560 -143.9146 241° Southwest 421 484 34,000  Level FlightAware Transoceanic
04:17PM 29.8990 -144.0326 241° Southwest 421 484 34,000  Level FlightAware Transoceanic
04:18PM 29.8419 -144.1505 241° Southwest 421 484 34,000  Level FlightAware Transoceanic
04:19PM 29.7846 -144.2682 241° Southwest 421 484 34,000  Level FlightAware Transoceanic
04:20PM 29.7273 -144.3859 241° Southwest 421 484 34,000  Level FlightAware Transoceanic
04:21PM 29.6699 -144.5034 241° Southwest 421 484 34,000  Level FlightAware Transoceanic
04:22PM 29.6123 -144.6207 241° Southwest 421 484 34,000  Level FlightAware Transoceanic
04:23PM 29.5547 -144.7379 240° Southwest 421 484 34,000  Level FlightAware Transoceanic
04:24PM 29.4969 -144.8550 240° Southwest 421 484 34,000  Level FlightAware Transoceanic
04:25PM 29.4391 -144.9720 240° Southwest 421 484 34,000  Level FlightAware Transoceanic
04:26PM 29.3811 -145.0888 240° Southwest 421 484 34,000  Level FlightAware Transoceanic
04:27PM 29.3230 -145.2055 240° Southwest 421 484 34,000  Level FlightAware Transoceanic
04:28PM 29.2649 -145.3220 240° Southwest 421 484 34,000  Level FlightAware Transoceanic
04:29PM 29.2066 -145.4385 240° Southwest 421 484 34,000  Level FlightAware Transoceanic
04:30PM 29.1483 -145.5547 240° Southwest 421 484 34,000  Level FlightAware Transoceanic
04:31PM 29.0898 -145.6709 240° Southwest 421 484 34,000  Level FlightAware Transoceanic
04:32PM 29.0312 -145.7869 240° Southwest 421 484 34,000  Level FlightAware Transoceanic
04:33PM 28.9726 -145.9028 240° Southwest 421 484 34,000  Level FlightAware Transoceanic
04:34PM 28.9138 -146.0186 240° Southwest 421 484 34,000  Level FlightAware Transoceanic
04:35PM 28.8549 -146.1342 240° Southwest 421 484 34,000  Level FlightAware Transoceanic
04:36PM 28.7960 -146.2497 240° Southwest 421 484 34,000  Level FlightAware Transoceanic
04:37PM 28.7369 -146.3651 240° Southwest 421 484 34,000  Level FlightAware Transoceanic
04:38PM 28.6778 -146.4803 240° Southwest 421 484 34,000  Level FlightAware Transoceanic
04:39PM 28.6185 -146.5954 240° Southwest 421 484 34,000  Level FlightAware Transoceanic
04:40PM 28.5592 -146.7104 240° Southwest 421 484 34,000  Level FlightAware Transoceanic
04:41PM 28.4997 -146.8253 239° Southwest 421 484 34,000  Level FlightAware Transoceanic
04:42PM 28.4402 -146.9400 239° Southwest 421 484 34,000  Level FlightAware Transoceanic
04:43PM 28.3805 -147.0546 239° Southwest 421 484 34,000  Level FlightAware Transoceanic
04:44PM 28.3208 -147.1690 239° Southwest 421 484 34,000  Level FlightAware Transoceanic
04:45PM 28.2610 -147.2834 239° Southwest 421 484 34,000  Level FlightAware Transoceanic
04:46PM 28.2010 -147.3976 239° Southwest 421 484 34,000  Level FlightAware Transoceanic
04:47PM 28.1410 -147.5116 239° Southwest 421 484 34,000  Level FlightAware Transoceanic
04:48PM 28.0809 -147.6256 239° Southwest 421 484 34,000  Level FlightAware Transoceanic
04:49PM 28.0207 -147.7394 239° Southwest 421 484 34,000  Level FlightAware Transoceanic
04:50PM 27.9604 -147.8531 239° Southwest 421 484 34,000  Level FlightAware Transoceanic
04:51PM 27.9000 -147.9667 239° Southwest 421 484 34,000  Level FlightAware Transoceanic
04:51PM 27.9000 -147.9667 239° Southwest 422 486 34,000  Level Oakland Oceanic (ODAPS)
04:52PM 27.8403 -148.0784 239° Southwest 421 484 34,000  Level FlightAware Transoceanic
04:53PM 27.7806 -148.1899 239° Southwest 421 484 34,000  Level FlightAware Transoceanic
04:54PM 27.7207 -148.3014 239° Southwest 421 484 34,000  Level FlightAware Transoceanic
04:55PM 27.6607 -148.4127 239° Southwest 421 484 34,000  Level FlightAware Transoceanic
04:56PM 27.6007 -148.5239 239° Southwest 421 484 34,000  Level FlightAware Transoceanic
04:57PM 27.4116 -148.8723 238° Southwest 422 486 34,000  Level FlightAware Transoceanic
04:58PM 27.3501 -148.9849 238° Southwest 422 486 34,000  Level FlightAware Transoceanic
04:59PM 27.2886 -149.0974 238° Southwest 422 486 34,000  Level FlightAware Transoceanic
05:00PM 27.2270 -149.2098 238° Southwest 422 486 34,000  Level FlightAware Transoceanic
05:01PM 27.1652 -149.3221 238° Southwest 422 486 34,000  Level FlightAware Transoceanic
05:02PM 27.1034 -149.4342 238° Southwest 422 486 34,000  Level FlightAware Transoceanic
05:03PM 27.0415 -149.5463 238° Southwest 422 486 34,000  Level FlightAware Transoceanic
05:04PM 26.9795 -149.6582 238° Southwest 422 486 34,000  Level FlightAware Transoceanic
05:05PM 26.9174 -149.7699 238° Southwest 422 486 34,000  Level FlightAware Transoceanic
05:06PM 26.8552 -149.8816 238° Southwest 422 486 34,000  Level FlightAware Transoceanic
05:07PM 26.7930 -149.9931 238° Southwest 422 486 34,000  Level FlightAware Transoceanic
05:08PM 26.7306 -150.1045 238° Southwest 422 486 34,000  Level FlightAware Transoceanic
05:09PM 26.6682 -150.2158 238° Southwest 422 486 34,000  Level FlightAware Transoceanic
05:10PM 26.6057 -150.3269 238° Southwest 422 486 34,000  Level FlightAware Transoceanic
05:11PM 26.5431 -150.4380 238° Southwest 422 486 34,000  Level FlightAware Transoceanic
05:12PM 26.4804 -150.5489 238° Southwest 422 486 34,000  Level FlightAware Transoceanic
05:13PM 26.4176 -150.6597 238° Southwest 422 486 34,000  Level FlightAware Transoceanic
05:14PM 26.3547 -150.7703 238° Southwest 422 486 34,000  Level FlightAware Transoceanic
05:15PM 26.2918 -150.8809 238° Southwest 422 486 34,000  Level FlightAware Transoceanic
05:16PM 26.2288 -150.9913 237° Southwest 422 486 34,000  Level FlightAware Transoceanic
05:17PM 26.1656 -151.1016 237° Southwest 422 486 34,000  Level FlightAware Transoceanic
05:18PM 26.1024 -151.2118 237° Southwest 422 486 34,000  Level FlightAware Transoceanic
05:19PM 26.0392 -151.3219 237° Southwest 422 486 34,000  Level FlightAware Transoceanic
05:20PM 25.9758 -151.4319 237° Southwest 422 486 34,000  Level FlightAware Transoceanic
05:21PM 25.9123 -151.5417 237° Southwest 422 486 34,000  Level FlightAware Transoceanic
05:22PM 25.8488 -151.6514 237° Southwest 422 486 34,000  Level FlightAware Transoceanic
05:23PM 25.7852 -151.7610 237° Southwest 422 486 34,000  Level FlightAware Transoceanic
05:24PM 25.7215 -151.8705 237° Southwest 422 486 34,000  Level FlightAware Transoceanic
05:25PM 25.6577 -151.9799 237° Southwest 422 486 34,000  Level FlightAware Transoceanic
05:26PM 25.5938 -152.0891 237° Southwest 422 486 34,000  Level FlightAware Transoceanic
05:27PM 25.5299 -152.1982 237° Southwest 422 486 34,000  Level FlightAware Transoceanic
05:28PM 25.4659 -152.3073 237° Southwest 422 486 34,000  Level FlightAware Transoceanic
05:29PM 25.4018 -152.4162 237° Southwest 422 486 34,000  Level FlightAware Transoceanic
05:30PM 25.3376 -152.5249 237° Southwest 422 486 34,000  Level FlightAware Transoceanic
05:31PM 25.2733 -152.6336 237° Southwest 422 486 34,000  Level FlightAware Transoceanic
05:32PM 25.2090 -152.7422 237° Southwest 422 486 34,000  Level FlightAware Transoceanic
05:33PM 25.1446 -152.8506 237° Southwest 422 486 34,000  Level FlightAware Transoceanic
05:34PM 25.0801 -152.9589 237° Southwest 422 486 34,000  Level FlightAware Transoceanic
05:35PM 25.0155 -153.0671 237° Southwest 422 486 34,000  Level FlightAware Transoceanic
05:36PM 24.9508 -153.1752 237° Southwest 422 486 34,000  Level FlightAware Transoceanic
05:37PM 24.8861 -153.2832 237° Southwest 422 486 34,000  Level FlightAware Transoceanic
05:38PM 24.8213 -153.3911 236° Southwest 422 486 34,000  Level FlightAware Transoceanic
05:39PM 24.7564 -153.4988 236° Southwest 422 486 34,000  Level FlightAware Transoceanic
05:40PM 24.6914 -153.6065 236° Southwest 422 486 34,000  Level FlightAware Transoceanic
05:41PM 24.6264 -153.7140 236° Southwest 422 486 34,000  Level FlightAware Transoceanic
05:42PM 24.5612 -153.8214 236° Southwest 422 486 34,000  Level FlightAware Transoceanic
05:43PM 24.4960 -153.9287 236° Southwest 422 486 34,000  Level FlightAware Transoceanic
05:44PM 24.4308 -154.0359 236° Southwest 422 486 34,000  Level FlightAware Transoceanic
05:45PM 24.3654 -154.1430 236° Southwest 422 486 34,000  Level FlightAware Transoceanic
05:45PM 24.3500 -154.1333 236° Southwest 440 506 34,000  Level Honolulu Center
05:46PM 24.3000 -154.2500 236° Southwest 422 486 34,000  Level FlightAware Transoceanic
05:46PM 24.2833 -154.2333 234° Southwest 420 483 34,000  Level Honolulu Center
05:47PM 24.2365 -154.3533 236° Southwest 422 486 34,000  Level FlightAware Transoceanic
05:47PM 24.2167 -154.3333 234° Southwest 420 483 34,000  Level Honolulu Center
05:48PM 24.1729 -154.4566 236° Southwest 422 486 34,000  Level FlightAware Transoceanic
05:48PM 24.1500 -154.4333 234° Southwest 420 483 34,000  Level Honolulu Center
05:49PM 24.1093 -154.5597 236° Southwest 422 486 34,000  Level FlightAware Transoceanic
05:49PM 24.0833 -154.5500 238° Southwest 420 483 34,000  Level Honolulu Center
05:50PM 24.0455 -154.6627 236° Southwest 422 486 34,000  Level FlightAware Transoceanic
05:50PM 24.0167 -154.6500 234° Southwest 430 495 34,000  Level Honolulu Center
05:51PM 23.9333 -154.7333 222° Southwest 430 495 34,000  Level Honolulu Center
05:52PM 23.8500 -154.8333 228° Southwest 430 495 34,000  Level Honolulu Center
05:53PM 23.7833 -154.9000 222° Southwest 420 483 34,000  Level Honolulu Center
05:54PM 23.6833 -155.0167 227° Southwest 420 483 34,000  Level Honolulu Center
05:55PM 23.6000 -155.1000 223° Southwest 420 483 34,000  Level Honolulu Center
05:56PM 23.5167 -155.2000 228° Southwest 420 483 34,000  Level Honolulu Center
05:57PM 23.4333 -155.2833 223° Southwest 420 483 34,000  Level Honolulu Center
05:58PM 23.3500 -155.3833 228° Southwest 420 483 34,000  Level Honolulu Center
05:59PM 23.2667 -155.4667 223° Southwest 410 472 34,000  Level Honolulu Center
06:00PM 23.2000 -155.5333 223° Southwest 420 483 34,000  Level Honolulu Center
06:01PM 23.1167 -155.6500 232° Southwest 420 483 34,000  Level Honolulu Center
06:02PM 23.0333 -155.7333 223° Southwest 420 483 34,000  Level Honolulu Center
06:03PM 22.9500 -155.8333 228° Southwest 410 472 34,000  Level Honolulu Center
06:04PM 22.8667 -155.9167 223° Southwest 420 483 34,000  Level Honolulu Center
06:05PM 22.7833 -156.0167 228° Southwest 410 472 34,000  Level Honolulu Center
06:06PM 22.7000 -156.1000 223° Southwest 420 483 34,000  Level Honolulu Center
06:07PM 22.6333 -156.1833 229° Southwest 420 483 34,000  Level Honolulu Center
06:08PM 22.5500 -156.2833 228° Southwest 420 483 34,000  Level Honolulu Center
06:09PM 22.4667 -156.3667 223° Southwest 420 483 34,000  Level Honolulu Center
06:10PM 22.3833 -156.4667 228° Southwest 420 483 34,000  Level Honolulu Center
06:11PM 22.3000 -156.5500 223° Southwest 420 483 34,000 -300 Level Honolulu Center
06:12PM 22.2167 -156.6333 223° Southwest 430 495 33,400 -1,920 Descending Honolulu Center
06:13PM 22.1333 -156.7333 228° Southwest 430 495 30,200 -2,940 Descending Honolulu Center
06:14PM 22.0500 -156.8167 223° Southwest 430 495 27,600 -2,520 Descending Honolulu Center
06:15PM 21.9667 -156.9000 223° Southwest 420 483 25,200 -2,460 Descending Honolulu Center
06:16PM 21.8833 -156.9833 223° Southwest 410 472 22,700 -2,580 Descending Honolulu Center
06:17PM 21.8167 -157.0667 229° Southwest 400 460 20,100 -2,520 Descending Honolulu Center
06:18PM 21.7167 -157.1667 223° Southwest 380 437 17,700 -2,340 Descending Honolulu Center
06:19PM 21.6500 -157.2500 229° Southwest 370 426 15,500 -2,280 Descending Honolulu Center
06:20PM 21.5833 -157.3167 223° Southwest 360 414 13,200 -2,280 Descending Honolulu Center
06:21PM 21.5167 -157.4000 229° Southwest 350 403 11,000 -1,620 Descending Honolulu Center
06:22PM 21.4333 -157.4667 217° Southwest 340 391 10,000 -540 Descending Honolulu Center
06:23PM 21.3833 -157.5500 237° Southwest 340 391 10,000  Level Honolulu Center
06:24PM 21.3667 -157.6500 260° West 330 380 10,000 -300 Level Honolulu Center
06:25PM 21.3333 -157.7167 242° Southwest 280 322 9,400 -600 Descending Honolulu Center